Time;durP1;ratioP1;P1;durP2;ratioP2;P2;SDS_P1;SDS_P2;PMS_P1;PMS_P2;Temp;Humidity;BMP_temperature;BMP_pressure;BME280_temperature;BME280_humidity;BME280_pressure;Samples;Min_cycle;Max_cycle;Signal;HPM_P1;HPM_P2
2023/08/18 00:02:20;;;;;;;10.27;6.80;;;;;;;24.47;53.88;99343.16;5015903;28;20021;-85
2023/08/18 00:04:46;;;;;;;14.40;8.18;;;;;;;24.64;53.45;99344.09;5015189;28;20519;-86
2023/08/18 00:07:11;;;;;;;10.82;7.88;;;;;;;24.75;53.16;99341.06;5014457;28;20017;-86
2023/08/18 00:09:37;;;;;;;12.15;7.53;;;;;;;25.03;52.16;99338.94;5014178;28;20033;-85
2023/08/18 00:12:05;;;;;;;13.05;6.63;;;;;;;25.13;52.20;99336.31;5032772;28;20104;-85
2023/08/18 00:14:31;;;;;;;13.60;7.85;;;;;;;25.23;51.74;99329.56;5014431;28;20037;-86
2023/08/18 00:16:56;;;;;;;13.30;7.57;;;;;;;24.69;53.25;99339.94;5032267;28;20124;-86
2023/08/18 00:19:22;;;;;;;9.75;7.60;;;;;;;24.97;52.27;99317.78;5014656;28;20048;-86
2023/08/18 00:21:47;;;;;;;10.48;7.72;;;;;;;25.20;51.74;99336.16;5014684;28;20099;-85
2023/08/18 00:24:12;;;;;;;10.02;6.90;;;;;;;25.23;52.09;99330.34;5032635;28;20459;-86
2023/08/18 00:26:38;;;;;;;9.82;6.78;;;;;;;25.15;52.03;99333.81;5032511;28;20030;-86
2023/08/18 00:29:03;;;;;;;12.73;7.32;;;;;;;25.24;51.91;99326.25;5015255;28;20112;-86
2023/08/18 00:31:29;;;;;;;10.30;6.63;;;;;;;25.38;51.51;99330.88;5031109;28;20029;-86
2023/08/18 00:33:54;;;;;;;10.68;7.28;;;;;;;25.42;51.24;99325.09;5032033;28;20083;-86
2023/08/18 00:36:20;;;;;;;12.70;6.55;;;;;;;25.42;51.42;99324.28;5025790;28;20711;-86
2023/08/18 00:38:45;;;;;;;8.38;7.05;;;;;;;25.40;52.17;99333.31;5020714;28;20462;-85
2023/08/18 00:41:11;;;;;;;13.05;7.10;;;;;;;25.42;52.24;99330.81;5014301;28;20037;-86
2023/08/18 00:43:36;;;;;;;8.90;6.75;;;;;;;25.54;51.71;99326.50;5011231;28;20030;-86
2023/08/18 00:46:02;;;;;;;8.40;6.32;;;;;;;25.32;52.66;99329.78;5013569;28;20052;-86
2023/08/18 00:48:28;;;;;;;10.27;6.60;;;;;;;25.21;52.74;99326.31;5032200;28;20021;-86
2023/08/18 00:50:55;;;;;;;8.10;5.53;;;;;;;25.22;52.97;99327.97;5013217;28;20033;-86
2023/08/18 00:53:21;;;;;;;8.93;7.15;;;;;;;25.09;52.80;99302.03;5014344;28;20043;-86
2023/08/18 00:55:48;;;;;;;10.18;6.72;;;;;;;25.27;52.54;99312.31;5014197;28;20412;-86
2023/08/18 00:58:14;;;;;;;8.13;6.28;;;;;;;24.94;53.69;99315.81;5011678;28;20026;-86
2023/08/18 01:00:40;;;;;;;11.65;6.60;;;;;;;25.15;53.21;99339.53;5014248;28;20025;-86
2023/08/18 01:03:06;;;;;;;8.63;6.72;;;;;;;25.07;53.22;99318.84;5014132;28;20134;-86
2023/08/18 01:05:32;;;;;;;12.18;7.18;;;;;;;24.98;53.63;99324.31;5014113;28;20049;-86
2023/08/18 01:08:00;;;;;;;14.98;7.05;;;;;;;24.88;53.41;99315.50;5013390;28;20036;-86
2023/08/18 01:10:28;;;;;;;13.65;7.22;;;;;;;24.91;53.62;99339.56;5031724;28;20094;-86
2023/08/18 01:13:15;;;;;;;9.15;7.47;;;;;;;24.86;53.80;99340.06;5013696;28;20021;-86
2023/08/18 01:15:44;;;;;;;16.85;7.45;;;;;;;24.91;53.55;99336.72;5012329;28;20013;-86
2023/08/18 01:18:12;;;;;;;9.32;7.35;;;;;;;24.75;53.86;99337.38;5010760;28;20112;-86
2023/08/18 01:20:38;;;;;;;15.07;8.68;;;;;;;24.64;54.32;99334.72;5006198;28;20018;-86
2023/08/18 01:23:04;;;;;;;9.82;6.30;;;;;;;24.54;54.74;99347.94;5013515;28;20026;-86
2023/08/18 01:25:30;;;;;;;13.07;7.85;;;;;;;24.16;55.43;99348.16;5031788;28;20493;-86
2023/08/18 01:27:59;;;;;;;16.63;7.00;;;;;;;23.67;57.00;99343.50;5008696;28;20032;-85
2023/08/18 01:30:48;;;;;;;13.20;7.88;;;;;;;23.73;56.79;99338.94;5013597;28;20108;-86
2023/08/18 01:33:34;;;;;;;11.25;7.60;;;;;;;23.34;58.01;99348.81;5013735;28;20022;-86
2023/08/18 01:36:07;;;;;;;13.23;7.85;;;;;;;23.47;57.35;99338.47;5013929;28;20068;-86
2023/08/18 01:38:35;;;;;;;17.05;8.45;;;;;;;23.70;56.20;99337.75;5011583;28;20384;-86
2023/08/18 01:41:02;;;;;;;12.93;7.50;;;;;;;23.16;57.93;99332.69;5024960;28;20099;-86
2023/08/18 01:43:30;;;;;;;14.60;8.40;;;;;;;23.10;57.98;99329.50;5032213;28;20067;-85
2023/08/18 01:45:55;;;;;;;11.15;8.27;;;;;;;22.93;58.03;99319.91;5034273;28;20062;-86
2023/08/18 01:48:21;;;;;;;12.15;8.68;;;;;;;23.41;57.07;99343.03;5037584;28;20119;-85
2023/08/18 01:50:46;;;;;;;20.48;8.48;;;;;;;23.69;56.15;99324.72;5055327;28;20434;-86
2023/08/18 01:53:12;;;;;;;18.88;7.90;;;;;;;23.85;55.40;99334.69;5037465;28;20439;-86
2023/08/18 01:55:37;;;;;;;13.57;8.07;;;;;;;24.08;54.90;99333.16;5026935;28;20021;-85
2023/08/18 01:58:03;;;;;;;10.48;7.45;;;;;;;24.05;54.69;99331.19;5017027;28;20029;-86
2023/08/18 02:00:28;;;;;;;12.82;7.90;;;;;;;24.21;54.77;99331.31;5017254;28;20044;-86
2023/08/18 02:02:54;;;;;;;17.02;7.93;;;;;;;24.26;54.10;99332.88;5017567;28;20557;-86
2023/08/18 02:05:19;;;;;;;17.75;7.88;;;;;;;23.98;54.62;99329.22;5034037;28;20531;-86
2023/08/18 02:07:44;;;;;;;13.30;8.13;;;;;;;23.74;55.60;99331.19;5017334;28;20029;-86
2023/08/18 02:10:10;;;;;;;14.15;8.00;;;;;;;24.03;54.70;99334.47;5017189;28;20021;-86
2023/08/18 02:12:35;;;;;;;17.25;7.75;;;;;;;24.01;54.95;99324.66;5019815;28;20028;-85
2023/08/18 02:15:01;;;;;;;9.45;7.35;;;;;;;24.14;54.80;99330.63;5037180;28;20024;-86
2023/08/18 02:17:29;;;;;;;15.13;7.50;;;;;;;23.96;55.02;99323.13;5037014;28;20052;-86
2023/08/18 02:19:58;;;;;;;21.00;8.35;;;;;;;24.00;55.24;99325.91;5041673;28;20040;-85
2023/08/18 02:22:25;;;;;;;22.10;9.53;;;;;;;24.19;54.99;99333.81;5016994;28;20030;-85
2023/08/18 02:24:51;;;;;;;13.25;7.22;;;;;;;24.07;56.01;99323.81;5013874;28;20452;-85
2023/08/18 02:27:17;;;;;;;13.52;8.32;;;;;;;24.04;56.26;99327.50;5013331;28;20029;-85
2023/08/18 02:29:42;;;;;;;14.52;7.90;;;;;;;23.73;57.78;99318.97;5013261;28;20037;-85
2023/08/18 02:32:08;;;;;;;13.85;9.18;;;;;;;23.51;58.62;99321.28;4997163;28;20493;-86
2023/08/18 02:34:33;;;;;;;15.80;8.48;;;;;;;23.66;58.13;99321.91;4997502;28;20430;-87
2023/08/18 02:36:59;;;;;;;20.88;10.02;;;;;;;23.73;57.70;99323.84;5030536;28;20032;-86
2023/08/18 02:39:24;;;;;;;19.13;10.98;;;;;;;23.72;57.45;99325.09;5022325;28;20028;-86
2023/08/18 02:41:51;;;;;;;19.00;9.57;;;;;;;23.70;57.29;99319.78;5016710;28;20060;-86
2023/08/18 02:44:17;;;;;;;16.30;9.23;;;;;;;23.78;56.91;99331.94;5020067;28;20104;-86
2023/08/18 02:46:43;;;;;;;14.45;8.93;;;;;;;23.66;57.55;99321.91;5019538;28;20025;-86
2023/08/18 02:49:08;;;;;;;13.13;9.70;;;;;;;23.83;56.75;99329.44;5011303;28;20025;-86
2023/08/18 02:51:34;;;;;;;16.17;8.77;;;;;;;23.72;57.06;99330.81;5029372;28;20036;-87
2023/08/18 02:53:59;;;;;;;13.25;9.55;;;;;;;23.73;57.05;99335.28;5025873;28;20025;-86
2023/08/18 02:56:26;;;;;;;13.85;8.60;;;;;;;23.62;57.14;99327.66;5014214;28;20034;-87
2023/08/18 02:58:52;;;;;;;15.02;9.82;;;;;;;23.47;57.68;99326.25;5004793;28;20064;-86
2023/08/18 03:01:17;;;;;;;21.05;9.48;;;;;;;23.59;57.40;99328.53;5027576;28;20459;-86
2023/08/18 03:03:43;;;;;;;18.20;9.73;;;;;;;23.51;57.42;99321.28;5014779;28;20045;-86
2023/08/18 03:06:08;;;;;;;16.40;8.95;;;;;;;23.34;57.61;99300.28;5013028;28;20018;-85
2023/08/18 03:08:38;;;;;;;31.98;11.98;;;;;;;23.51;57.25;99327.00;5009523;28;20048;-85
2023/08/18 03:11:04;;;;;;;;;;;;;;;23.50;57.53;99331.06;5016468;28;20025;-85
2023/08/18 03:13:31;;;;;;;26.88;10.80;;;;;;;23.24;58.25;99337.09;5028988;28;20354;-86
2023/08/18 03:15:56;;;;;;;15.45;10.68;;;;;;;23.16;58.45;99334.72;5025307;28;20021;-83
2023/08/18 03:18:22;;;;;;;24.02;10.57;;;;;;;23.06;58.48;99320.16;5028262;28;20531;-83
2023/08/18 03:20:48;;;;;;;26.38;11.48;;;;;;;23.18;58.24;99335.13;5015615;28;20014;-83
2023/08/18 03:23:15;;;;;;;25.25;13.45;;;;;;;23.07;58.89;99335.22;5015586;28;20036;-84
2023/08/18 03:25:42;;;;;;;24.55;10.65;;;;;;;23.24;58.37;99336.25;5015856;28;20017;-84
2023/08/18 03:28:08;;;;;;;28.60;10.75;;;;;;;23.20;58.49;99341.22;5011536;28;20033;-84
2023/08/18 03:30:37;;;;;;;19.25;9.25;;;;;;;23.16;58.57;99334.72;5012640;28;20036;-84
2023/08/18 03:33:03;;;;;;;20.80;10.00;;;;;;;23.12;58.21;99332.72;5014881;28;20132;-84
2023/08/18 03:35:31;;;;;;;19.70;9.07;;;;;;;22.99;58.64;99341.03;5019458;28;20519;-83
2023/08/18 03:37:58;;;;;;;16.45;9.15;;;;;;;23.00;58.47;99344.66;5021816;28;20021;-83
2023/08/18 03:40:25;;;;;;;17.02;8.93;;;;;;;22.25;60.78;99338.38;5031769;28;20060;-84
2023/08/18 03:42:50;;;;;;;33.58;9.55;;;;;;;22.19;61.59;99335.16;5014231;28;20064;-84
2023/08/18 03:45:16;;;;;;;19.17;9.63;;;;;;;22.44;60.77;99339.84;5015498;28;20021;-84
2023/08/18 03:47:42;;;;;;;20.98;8.57;;;;;;;22.48;60.78;99334.13;5015352;28;20156;-84
2023/08/18 03:50:08;;;;;;;23.13;9.02;;;;;;;22.55;61.01;99340.59;5012533;28;20408;-85
2023/08/18 03:52:33;;;;;;;27.42;11.27;;;;;;;22.48;61.32;99343.53;5011497;28;20029;-84
2023/08/18 03:54:59;;;;;;;21.85;9.65;;;;;;;22.56;61.18;99341.44;5012235;28;20036;-85
2023/08/18 03:57:24;;;;;;;23.90;9.75;;;;;;;22.73;60.45;99345.34;5011060;28;20072;-84
2023/08/18 03:59:50;;;;;;;25.35;8.95;;;;;;;22.66;60.58;99353.97;5008893;28;20492;-84
2023/08/18 04:02:15;;;;;;;29.92;9.27;;;;;;;22.82;60.41;99350.56;5015016;28;20017;-84
2023/08/18 04:04:40;;;;;;;18.13;9.13;;;;;;;22.97;59.66;99354.06;5014987;28;20455;-84
2023/08/18 04:07:06;;;;;;;27.20;8.50;;;;;;;23.00;60.02;99353.22;5010462;28;20026;-84
2023/08/18 04:09:31;;;;;;;21.45;10.10;;;;;;;23.06;59.25;99357.25;5027333;28;20032;-84
2023/08/18 04:11:57;;;;;;;36.00;10.10;;;;;;;22.96;60.02;99352.47;5014828;28;20021;-84
2023/08/18 04:14:22;;;;;;;15.13;8.75;;;;;;;23.00;59.90;99353.22;5014798;28;20502;-84
2023/08/18 04:16:48;;;;;;;19.10;9.80;;;;;;;23.10;59.10;99352.31;5014828;28;20368;-84
2023/08/18 04:19:13;;;;;;;22.88;8.75;;;;;;;23.05;59.80;99351.97;5031119;28;20381;-84
2023/08/18 04:21:39;;;;;;;21.88;9.40;;;;;;;23.16;59.07;99355.50;5012701;28;20037;-84
2023/08/18 04:24:04;;;;;;;22.13;9.80;;;;;;;23.17;59.00;99347.75;5011335;28;20049;-84
2023/08/18 04:26:30;;;;;;;20.88;9.00;;;;;;;23.31;58.52;99350.47;5006316;28;20104;-84
2023/08/18 04:28:55;;;;;;;12.68;8.85;;;;;;;23.21;58.26;99335.06;5014176;28;20033;-84
2023/08/18 04:31:21;;;;;;;15.48;8.07;;;;;;;23.13;58.53;99351.44;5014427;28;20072;-84
2023/08/18 04:33:47;;;;;;;18.13;8.20;;;;;;;23.08;59.01;99357.63;5013024;28;20032;-84
2023/08/18 04:36:13;;;;;;;20.33;8.50;;;;;;;23.38;58.01;99364.66;5011212;28;20600;-84
2023/08/18 04:38:38;;;;;;;18.95;7.93;;;;;;;23.48;57.70;99373.50;5011664;28;20030;-84
2023/08/18 04:41:04;;;;;;;9.52;7.40;;;;;;;23.41;57.35;99348.72;5014040;28;20049;-84
2023/08/18 04:43:30;;;;;;;17.95;8.45;;;;;;;23.40;57.90;99364.22;5018062;28;20095;-84
2023/08/18 04:45:57;;;;;;;20.67;8.63;;;;;;;23.22;58.72;99367.25;5013266;28;20037;-84
2023/08/18 04:48:24;;;;;;;16.52;8.35;;;;;;;23.02;59.43;99361.38;5011721;28;20032;-84
2023/08/18 04:50:50;;;;;;;24.60;9.40;;;;;;;22.62;60.76;99361.75;5031687;28;20021;-84
2023/08/18 04:53:16;;;;;;;21.42;9.05;;;;;;;22.46;61.86;99360.22;5013984;28;20063;-84
2023/08/18 04:55:42;;;;;;;18.58;8.30;;;;;;;22.14;62.55;99341.31;5012237;28;20025;-84
2023/08/18 04:58:17;;;;;;;24.85;9.10;;;;;;;21.96;63.66;99359.34;5020017;28;20029;-84
2023/08/18 05:00:43;;;;;;;23.25;9.27;;;;;;;22.14;63.06;99364.94;5004357;28;20492;-84
2023/08/18 05:03:09;;;;;;;17.73;8.68;;;;;;;22.26;62.82;99369.31;5013868;28;20022;-84
2023/08/18 05:05:39;;;;;;;30.83;9.75;;;;;;;22.36;62.62;99372.50;5013755;28;20046;-84
2023/08/18 05:08:05;;;;;;;15.18;8.23;;;;;;;22.53;62.18;99362.22;5013769;28;20025;-84
2023/08/18 05:10:30;;;;;;;20.33;7.57;;;;;;;22.36;62.21;99359.06;5031503;28;20103;-84
2023/08/18 05:12:56;;;;;;;11.93;7.60;;;;;;;22.45;61.75;99361.44;5013912;28;20087;-84
2023/08/18 05:15:22;;;;;;;10.90;6.93;;;;;;;22.65;61.09;99366.59;5002043;28;20060;-84
2023/08/18 05:17:48;;;;;;;18.48;6.65;;;;;;;22.55;61.63;99360.56;5035348;28;20028;-84
2023/08/18 05:20:15;;;;;;;11.55;7.28;;;;;;;22.49;61.50;99339.47;5017313;28;20024;-84
2023/08/18 05:22:40;;;;;;;14.02;7.95;;;;;;;22.80;61.47;99364.44;5005924;28;20385;-84
2023/08/18 05:25:08;;;;;;;12.70;6.93;;;;;;;22.89;61.11;99356.19;5026784;28;20124;-84
2023/08/18 05:27:34;;;;;;;19.35;8.48;;;;;;;22.97;61.10;99354.06;5023305;28;20056;-84
2023/08/18 05:30:00;;;;;;;17.98;7.20;;;;;;;23.01;60.80;99346.28;5010315;28;20032;-84
2023/08/18 05:32:25;;;;;;;13.82;6.65;;;;;;;23.01;60.38;99337.72;5006047;28;20021;-84
2023/08/18 05:34:55;;;;;;;11.45;6.78;;;;;;;23.08;59.48;99334.81;5012319;28;20022;-84
2023/08/18 05:37:21;;;;;;;14.10;7.75;;;;;;;23.39;58.69;99357.69;5005682;28;20086;-85
2023/08/18 05:39:47;;;;;;;13.60;6.45;;;;;;;23.58;58.85;99369.72;5024836;28;20037;-86
2023/08/18 05:42:12;;;;;;;19.40;7.20;;;;;;;23.59;59.16;99362.78;5026992;28;20095;-86
2023/08/18 05:44:38;;;;;;;18.45;8.50;;;;;;;23.72;59.26;99367.91;5012157;28;20025;-86
2023/08/18 05:47:04;;;;;;;10.48;8.18;;;;;;;23.75;58.64;99367.03;5013408;28;20025;-86
2023/08/18 05:49:29;;;;;;;16.48;8.68;;;;;;;23.70;59.38;99372.00;5002659;28;20048;-84
2023/08/18 05:51:55;;;;;;;12.45;7.63;;;;;;;23.94;58.15;99366.38;5015895;28;20029;-85
2023/08/18 05:54:20;;;;;;;12.05;7.35;;;;;;;24.18;56.76;99372.19;5009776;28;20041;-84
2023/08/18 05:56:46;;;;;;;23.38;13.00;;;;;;;24.22;56.20;99370.06;5010899;28;20027;-85
2023/08/18 05:59:11;;;;;;;22.80;9.77;;;;;;;24.28;55.44;99358.19;5006199;28;20022;-85
2023/08/18 06:01:37;;;;;;;15.05;9.25;;;;;;;24.48;55.08;99366.84;5023486;28;20117;-85
2023/08/18 06:04:03;;;;;;;9.00;6.75;;;;;;;24.44;55.32;99384.03;5011307;28;20033;-84
2023/08/18 06:06:28;;;;;;;10.15;5.90;;;;;;;24.45;54.57;99374.22;5003629;28;20105;-86
2023/08/18 06:08:54;;;;;;;9.52;7.25;;;;;;;24.49;55.30;99380.69;5011613;28;20060;-82
2023/08/18 06:11:19;;;;;;;13.45;7.93;;;;;;;24.74;54.74;99367.22;5015585;28;20487;-81
2023/08/18 06:13:45;;;;;;;12.93;7.50;;;;;;;24.93;53.94;99365.69;4998009;28;20057;-84
2023/08/18 06:16:10;;;;;;;12.65;6.72;;;;;;;24.92;53.93;99372.66;5023644;28;20030;-85
2023/08/18 06:18:35;;;;;;;15.68;6.95;;;;;;;24.78;53.41;99351.66;5004940;28;20032;-85
2023/08/18 06:21:01;;;;;;;33.85;8.55;;;;;;;25.13;53.13;99370.63;5007365;28;20060;-85
2023/08/18 06:23:26;;;;;;;17.35;7.25;;;;;;;25.17;52.58;99354.19;5020793;28;20029;-84
2023/08/18 06:25:56;;;;;;;8.40;6.32;;;;;;;25.24;53.21;99376.97;5012694;28;20061;-84
2023/08/18 06:28:22;;;;;;;9.95;6.35;;;;;;;25.49;52.46;99361.38;4997419;28;20040;-85
2023/08/18 06:30:47;;;;;;;9.70;6.85;;;;;;;25.44;51.85;99362.66;4999511;28;20034;-88
2023/08/18 06:33:13;;;;;;;11.98;6.35;;;;;;;25.73;51.51;99384.19;5009742;28;20416;-83
2023/08/18 06:35:38;;;;;;;10.90;6.78;;;;;;;25.90;50.82;99382.97;5012053;28;20385;-81
2023/08/18 06:38:04;;;;;;;31.63;7.35;;;;;;;26.29;49.91;99380.50;5021113;28;20029;-84
2023/08/18 06:40:29;;;;;;;9.95;6.45;;;;;;;26.48;49.56;99375.94;5011884;28;20104;-86
2023/08/18 06:42:55;;;;;;;13.15;6.43;;;;;;;26.35;49.33;99377.91;5007946;28;20061;-88
2023/08/18 06:45:20;;;;;;;32.30;7.38;;;;;;;26.56;49.42;99385.19;5006629;28;20014;-85
2023/08/18 06:47:45;;;;;;;11.10;6.43;;;;;;;26.56;48.48;99375.78;5018332;28;20021;-85
2023/08/18 06:50:11;;;;;;;11.50;6.63;;;;;;;26.70;49.87;99380.34;5007175;28;20084;-83
2023/08/18 06:52:37;;;;;;;9.82;6.57;;;;;;;26.83;47.98;99372.63;4990745;28;20125;-84
2023/08/18 06:55:04;;;;;;;10.68;6.45;;;;;;;26.86;47.35;99374.59;5031594;28;20093;-83
2023/08/18 06:57:29;;;;;;;25.58;7.10;;;;;;;26.96;47.22;99378.47;5007339;28;20508;-83
2023/08/18 06:59:55;;;;;;;10.32;6.55;;;;;;;26.87;47.12;99379.13;5030828;28;20087;-84
2023/08/18 07:02:20;;;;;;;12.00;6.57;;;;;;;26.74;47.74;99373.25;5030957;28;20076;-84
2023/08/18 07:04:46;;;;;;;9.10;5.72;;;;;;;26.96;47.38;99377.66;5003449;28;20108;-83
2023/08/18 07:07:12;;;;;;;18.63;7.50;;;;;;;27.47;46.68;99375.03;5008867;28;20030;-88
2023/08/18 07:09:37;;;;;;;10.00;6.40;;;;;;;27.50;46.10;99373.28;5011959;28;20056;-85
2023/08/18 07:12:04;;;;;;;9.52;6.25;;;;;;;27.70;45.54;99364.53;5013936;28;20412;-84
2023/08/18 07:14:29;;;;;;;11.10;6.40;;;;;;;27.68;45.77;99363.38;5006734;28;20111;-85
2023/08/18 07:16:55;;;;;;;13.35;7.30;;;;;;;28.06;45.04;99371.25;5008469;28;20494;-85
2023/08/18 07:19:21;;;;;;;8.85;6.22;;;;;;;27.96;44.93;99358.84;5026808;28;20037;-83
2023/08/18 07:21:46;;;;;;;8.98;6.25;;;;;;;27.92;44.98;99361.00;5010334;28;20095;-84
2023/08/18 07:24:12;;;;;;;12.70;6.70;;;;;;;28.09;44.24;99361.69;5012386;28;20106;-85
2023/08/18 07:26:37;;;;;;;11.68;6.30;;;;;;;28.37;43.31;99353.47;5020551;28;20041;-84
2023/08/18 07:29:04;;;;;;;10.82;6.35;;;;;;;28.61;42.66;99358.03;5013746;28;20044;-84
2023/08/18 07:31:30;;;;;;;13.60;6.32;;;;;;;28.64;42.35;99359.97;5016317;28;20163;-84
2023/08/18 07:33:56;;;;;;;11.93;5.93;;;;;;;28.14;42.58;99363.19;5015108;28;20112;-86
2023/08/18 07:36:22;;;;;;;13.05;5.65;;;;;;;28.72;43.02;99365.03;4998036;28;20536;-86
2023/08/18 07:38:47;;;;;;;11.32;5.40;;;;;;;29.03;42.33;99359.91;5004560;28;20040;-85
2023/08/18 07:41:13;;;;;;;10.15;5.57;;;;;;;28.50;41.75;99355.53;4994949;28;20069;-85
2023/08/18 07:43:39;;;;;;;6.18;4.80;;;;;;;28.64;41.58;99362.84;5001721;28;20068;-86
2023/08/18 07:46:05;;;;;;;9.75;5.78;;;;;;;28.63;41.61;99364.13;4999134;28;20056;-86
2023/08/18 07:48:31;;;;;;;14.07;6.57;;;;;;;28.47;42.07;99363.00;5000542;28;20405;-86
2023/08/18 07:50:57;;;;;;;6.88;5.43;;;;;;;29.09;42.26;99375.31;5005456;28;20467;-84
2023/08/18 07:53:22;;;;;;;10.38;5.63;;;;;;;29.42;40.69;99366.31;5012116;28;20036;-85
2023/08/18 07:55:48;;;;;;;11.75;5.70;;;;;;;29.52;40.46;99362.25;5010899;28;20570;-85
2023/08/18 07:58:13;;;;;;;22.42;6.28;;;;;;;29.91;40.30;99356.25;5010002;28;20036;-84
2023/08/18 08:00:39;;;;;;;6.70;5.15;;;;;;;29.82;40.29;99371.41;5008684;28;20029;-86
2023/08/18 08:03:04;;;;;;;7.20;5.78;;;;;;;30.13;39.23;99358.31;5013338;28;20545;-86
2023/08/18 08:05:30;;;;;;;8.70;5.97;;;;;;;29.67;39.98;99347.28;5013391;28;20029;-86
2023/08/18 08:07:55;;;;;;;11.68;7.10;;;;;;;29.39;40.39;99361.47;5032072;28;20033;-86
2023/08/18 08:10:21;;;;;;;12.07;8.02;;;;;;;29.58;40.95;99362.44;5015847;28;20037;-86
2023/08/18 08:12:48;;;;;;;7.63;6.55;;;;;;;30.22;40.26;99352.56;5013684;28;20064;-86
2023/08/18 08:15:14;;;;;;;12.48;6.97;;;;;;;29.98;41.45;99350.19;5005119;28;20026;-86
2023/08/18 08:17:40;;;;;;;7.95;6.57;;;;;;;30.54;39.17;99349.66;5009756;28;20120;-86
2023/08/18 08:20:15;;;;;;;12.95;6.68;;;;;;;30.03;39.34;99343.00;5014314;28;20120;-86
2023/08/18 08:22:41;;;;;;;9.02;6.43;;;;;;;30.58;39.43;99337.94;5024057;28;20021;-86
2023/08/18 08:25:07;;;;;;;27.60;6.72;;;;;;;30.14;39.54;99339.72;5015388;28;20029;-86
2023/08/18 08:27:33;;;;;;;7.93;5.85;;;;;;;30.64;39.26;99336.06;5012380;28;20029;-86
2023/08/18 08:29:59;;;;;;;8.95;5.93;;;;;;;31.03;38.55;99342.19;5016832;28;20029;-86
2023/08/18 08:32:24;;;;;;;10.75;5.63;;;;;;;31.32;38.98;99338.06;5013409;28;20149;-86
2023/08/18 08:34:51;;;;;;;7.38;5.35;;;;;;;31.46;37.32;99342.38;5014249;28;20033;-86
2023/08/18 08:37:19;;;;;;;5.03;4.50;;;;;;;31.54;36.69;99331.28;5025961;28;20404;-86
2023/08/18 08:39:45;;;;;;;5.32;4.65;;;;;;;31.90;37.02;99332.50;5024997;28;20033;-85
2023/08/18 08:42:11;;;;;;;5.32;4.82;;;;;;;31.93;36.43;99334.44;5028321;28;20076;-86
2023/08/18 08:44:37;;;;;;;11.82;4.95;;;;;;;31.86;36.96;99334.75;5031546;28;20025;-86
2023/08/18 08:47:03;;;;;;;10.57;5.10;;;;;;;32.06;36.45;99330.53;5007171;28;20030;-86
2023/08/18 08:49:29;;;;;;;7.10;4.57;;;;;;;31.93;36.21;99308.41;5017196;28;20021;-86
2023/08/18 08:52:01;;;;;;;8.52;4.90;;;;;;;32.08;36.15;99313.47;5016894;28;20544;-87
2023/08/18 08:54:28;;;;;;;9.57;5.20;;;;;;;32.16;36.18;99314.75;5024633;28;20408;-86
2023/08/18 08:56:54;;;;;;;8.02;5.03;;;;;;;32.39;35.64;99320.28;5051423;28;20029;-86
2023/08/18 08:59:20;;;;;;;6.97;4.35;;;;;;;32.59;36.08;99332.06;5033546;28;20419;-85
2023/08/18 09:01:46;;;;;;;5.93;4.05;;;;;;;32.48;34.93;99331.78;5025913;28;20036;-85
2023/08/18 09:04:13;;;;;;;8.10;4.05;;;;;;;32.46;35.07;99319.88;5009868;28;20030;-86
2023/08/18 09:06:38;;;;;;;15.13;4.68;;;;;;;32.62;34.44;99327.34;5021198;28;20167;-86
2023/08/18 09:09:04;;;;;;;6.80;4.70;;;;;;;32.84;34.71;99312.59;5016323;28;20104;-86
2023/08/18 09:11:48;;;;;;;10.30;4.15;;;;;;;32.89;35.07;99314.78;5013116;28;20112;-86
2023/08/18 09:14:15;;;;;;;8.40;4.85;;;;;;;32.83;33.98;99318.84;5012775;28;20563;-85
2023/08/18 09:16:44;;;;;;;7.20;3.95;;;;;;;32.57;34.45;99305.66;5035270;28;20029;-86
2023/08/18 09:19:13;;;;;;;8.20;4.17;;;;;;;32.67;34.26;99318.00;5042118;28;20024;-85
2023/08/18 09:21:39;;;;;;;11.30;5.07;;;;;;;32.65;34.03;99306.13;5034093;28;20961;-86
2023/08/18 09:24:05;;;;;;;14.45;4.15;;;;;;;32.79;34.49;99292.97;5020958;28;20032;-86
2023/08/18 09:26:30;;;;;;;8.90;4.72;;;;;;;32.99;34.19;99300.25;5018921;28;20022;-86
2023/08/18 09:28:56;;;;;;;6.65;4.68;;;;;;;32.99;33.41;99300.25;5016441;28;20025;-86
2023/08/18 09:31:21;;;;;;;5.82;4.72;;;;;;;33.05;34.30;99309.84;5016439;28;20030;-86
2023/08/18 09:33:47;;;;;;;9.15;5.47;;;;;;;33.42;33.77;99305.81;5017934;28;20033;-86
2023/08/18 09:36:13;;;;;;;12.63;5.22;;;;;;;33.54;33.44;99298.97;5022583;28;20082;-85
2023/08/18 09:38:42;;;;;;;8.80;4.95;;;;;;;33.44;32.89;99301.13;4997672;28;20431;-86
2023/08/18 09:41:09;;;;;;;9.00;4.50;;;;;;;33.66;32.98;99302.06;5018097;28;20114;-86
2023/08/18 09:43:38;;;;;;;7.00;4.03;;;;;;;33.87;32.24;99300.03;5016381;28;20025;-86
2023/08/18 09:46:05;;;;;;;8.57;4.55;;;;;;;33.69;31.92;99298.97;5013533;28;20531;-86
2023/08/18 09:48:38;;;;;;;10.48;4.68;;;;;;;33.35;32.68;99292.53;5039133;28;20107;-85
2023/08/18 09:51:07;;;;;;;13.10;5.45;;;;;;;32.87;32.80;99300.00;5016705;28;20055;-85
2023/08/18 09:53:33;;;;;;;;;;;;;;;32.83;33.14;99293.63;5028820;28;20117;-86
2023/08/18 09:56:16;;;;;;;7.15;5.07;;;;;;;32.95;32.50;99300.44;5029959;28;19948;-86
2023/08/18 09:59:06;;;;;;;9.10;5.18;;;;;;;33.03;32.73;99301.69;5017700;28;20022;-86
2023/08/18 10:01:36;;;;;;;13.88;4.78;;;;;;;32.97;32.37;99300.75;5028148;28;20697;-85
2023/08/18 10:04:02;;;;;;;17.55;5.43;;;;;;;32.96;32.46;99307.06;5030813;28;20115;-86
2023/08/18 10:06:28;;;;;;;12.95;5.25;;;;;;;33.19;32.13;99296.69;5012509;28;20021;-86
2023/08/18 10:08:56;;;;;;;11.90;4.63;;;;;;;33.18;32.34;99298.00;5030110;28;20025;-85
2023/08/18 10:11:22;;;;;;;13.93;5.07;;;;;;;33.38;31.84;99300.22;5031594;28;20026;-85
2023/08/18 10:13:50;;;;;;;9.98;4.88;;;;;;;33.50;31.60;99303.34;5016981;28;20033;-86
2023/08/18 10:16:15;;;;;;;9.95;4.78;;;;;;;33.39;31.58;99303.94;5033641;28;20056;-86
2023/08/18 10:18:42;;;;;;;5.63;4.78;;;;;;;33.34;31.70;99285.13;5016714;28;20021;-86
2023/08/18 10:21:10;;;;;;;10.55;4.68;;;;;;;33.56;31.90;99284.75;5024398;28;20388;-85
2023/08/18 10:23:39;;;;;;;18.63;5.65;;;;;;;33.67;31.60;99287.06;5028752;28;20091;-85
2023/08/18 10:26:05;;;;;;;12.47;4.80;;;;;;;33.96;30.67;99279.63;5017169;28;20029;-86
2023/08/18 10:28:33;;;;;;;8.45;5.72;;;;;;;33.86;31.20;99292.63;5021612;28;20104;-86
2023/08/18 10:31:05;;;;;;;7.32;5.50;;;;;;;33.80;31.51;99285.97;5007930;28;20500;-86
2023/08/18 10:33:43;;;;;;;9.63;4.75;;;;;;;34.12;31.23;99274.59;5004419;28;20488;-84
2023/08/18 10:36:13;;;;;;;6.32;4.68;;;;;;;34.41;30.62;99281.63;5000462;28;20026;-85
2023/08/18 10:38:41;;;;;;;7.85;5.20;;;;;;;34.62;30.86;99278.75;4997838;28;20064;-84
2023/08/18 10:41:06;;;;;;;16.52;4.18;;;;;;;34.90;30.17;99270.38;5001120;28;20026;-84
2023/08/18 10:43:52;;;;;;;10.10;5.18;;;;;;;34.63;30.32;99274.53;4981888;28;20080;-85
2023/08/18 10:46:17;;;;;;;9.77;4.82;;;;;;;34.67;30.44;99266.44;4992598;28;20034;-84
2023/08/18 10:48:43;;;;;;;8.27;4.78;;;;;;;34.70;30.01;99279.91;4982193;28;20080;-84
2023/08/18 10:51:08;;;;;;;11.02;4.70;;;;;;;34.82;30.07;99272.94;5013609;28;20073;-84
2023/08/18 10:53:37;;;;;;;7.95;5.00;;;;;;;34.82;30.01;99275.84;5019995;28;20018;-84
2023/08/18 10:56:04;;;;;;;8.02;5.10;;;;;;;34.81;30.52;99276.34;4990710;28;20021;-84
2023/08/18 10:58:30;;;;;;;9.20;4.75;;;;;;;34.37;29.94;99270.22;4990515;28;20036;-84
2023/08/18 11:00:56;;;;;;;15.60;4.88;;;;;;;34.55;29.74;99269.19;4989845;28;20093;-85
2023/08/18 11:03:21;;;;;;;11.18;4.38;;;;;;;34.62;30.26;99273.75;5007754;28;20038;-84
2023/08/18 11:05:47;;;;;;;8.68;4.15;;;;;;;34.66;29.43;99262.72;4986006;28;20361;-84
2023/08/18 11:08:13;;;;;;;10.02;4.93;;;;;;;34.81;29.79;99276.34;4974847;28;20037;-85
2023/08/18 11:10:40;;;;;;;10.25;4.10;;;;;;;35.06;29.67;99266.13;5007278;28;20030;-84
2023/08/18 11:13:11;;;;;;;8.52;4.78;;;;;;;35.14;29.16;99276.00;4982811;28;20038;-84
2023/08/18 11:15:37;;;;;;;11.85;4.80;;;;;;;34.84;28.99;99272.44;4990085;28;20030;-83
2023/08/18 11:18:03;;;;;;;17.27;4.38;;;;;;;34.69;29.26;99270.44;5004169;28;20048;-84
2023/08/18 11:20:28;;;;;;;8.68;4.13;;;;;;;34.88;29.21;99258.50;4995133;28;20029;-83
2023/08/18 11:22:56;;;;;;;5.32;4.70;;;;;;;34.70;29.24;99265.41;4999263;28;20492;-84
2023/08/18 11:25:22;;;;;;;8.00;4.82;;;;;;;34.94;28.79;99264.38;5000846;28;20087;-84